Time;durP1;ratioP1;P1;durP2;ratioP2;P2;SDS_P1;SDS_P2;PMS_P1;PMS_P2;Temp;Humidity;BMP_temperature;BMP_pressure;BME280_temperature;BME280_humidity;BME280_pressure;Samples;Min_cycle;Max_cycle;Signal;HPM_P1;HPM_P2
2023/10/23 00:01:34;;;;;;;25.40;9.60;;;;;;;9.94;100.00;100136.52;107384;1268;25212;-75
2023/10/23 00:04:05;;;;;;;27.60;9.30;;;;;;;9.93;100.00;100137.80;107380;1272;25305;-74
2023/10/23 00:06:36;;;;;;;39.20;15.70;;;;;;;9.92;100.00;100142.55;107440;1266;22562;-76
2023/10/23 00:09:07;;;;;;;39.50;15.30;;;;;;;9.91;100.00;100142.02;107352;1266;22556;-75
2023/10/23 00:11:37;;;;;;;42.10;17.30;;;;;;;9.89;100.00;100137.43;107330;1264;22537;-75
2023/10/23 00:14:08;;;;;;;36.10;15.10;;;;;;;9.87;100.00;100137.45;107292;1266;22557;-75
2023/10/23 00:16:39;;;;;;;37.40;15.10;;;;;;;9.86;100.00;100142.23;107408;1267;22526;-75
2023/10/23 00:19:10;;;;;;;35.40;12.90;;;;;;;9.85;100.00;100144.09;107332;1268;22782;-75
2023/10/23 00:21:41;;;;;;;39.10;14.70;;;;;;;9.84;100.00;100139.71;107433;1268;22546;-75
2023/10/23 00:24:12;;;;;;;36.90;13.60;;;;;;;9.82;100.00;100143.59;107345;1269;22558;-75
2023/10/23 00:26:43;;;;;;;33.00;13.70;;;;;;;9.82;100.00;100144.13;107293;1269;22568;-75
2023/10/23 00:29:14;;;;;;;38.80;13.90;;;;;;;9.80;100.00;100141.47;107348;1269;25453;-75
2023/10/23 00:31:44;;;;;;;31.20;11.10;;;;;;;9.82;100.00;100141.09;107327;1266;24245;-75
2023/10/23 00:34:15;;;;;;;31.70;11.10;;;;;;;9.82;100.00;100136.53;107385;1259;22543;-76
2023/10/23 00:36:46;;;;;;;31.60;10.20;;;;;;;9.83;100.00;100136.64;107339;1266;25325;-75
2023/10/23 00:39:17;;;;;;;25.10;9.10;;;;;;;9.83;100.00;100132.19;107370;1266;22548;-75
2023/10/23 00:41:47;;;;;;;25.10;9.30;;;;;;;9.83;100.00;100131.18;107400;1272;22587;-74
2023/10/23 00:44:18;;;;;;;27.60;9.60;;;;;;;9.84;100.00;100129.81;107399;1269;25456;-75
2023/10/23 00:46:49;;;;;;;26.50;9.70;;;;;;;9.83;100.00;100129.45;107370;1266;25350;-75
2023/10/23 00:49:20;;;;;;;28.60;11.40;;;;;;;9.83;100.00;100126.77;107308;1266;22620;-75
2023/10/23 00:51:51;;;;;;;27.10;11.00;;;;;;;9.83;100.00;100132.04;107407;1269;23016;-75
2023/10/23 00:54:24;;;;;;;25.90;9.70;;;;;;;9.82;100.00;100128.93;107348;1266;24223;-75
2023/10/23 00:56:56;;;;;;;28.40;10.40;;;;;;;9.82;100.00;100129.52;110430;1269;22159;-76
2023/10/23 00:59:27;;;;;;;22.30;8.10;;;;;;;9.80;100.00;100126.56;110396;1268;22320;-76
2023/10/23 01:01:58;;;;;;;28.10;8.70;;;;;;;9.79;100.00;100125.48;110439;1274;22295;-76
2023/10/23 01:04:30;;;;;;;34.20;12.70;;;;;;;9.80;100.00;100126.36;110430;1269;22162;-76
2023/10/23 01:07:01;;;;;;;34.40;12.60;;;;;;;9.80;100.00;100126.01;110410;1263;22169;-76
2023/10/23 01:09:32;;;;;;;39.10;13.10;;;;;;;9.81;100.00;100121.11;110449;1269;22188;-76
2023/10/23 01:12:03;;;;;;;36.00;13.30;;;;;;;9.82;100.00;100120.52;110421;1269;22214;-76
2023/10/23 01:14:33;;;;;;;46.70;17.60;;;;;;;9.83;100.00;100120.94;110450;1265;22250;-76
2023/10/23 01:17:05;;;;;;;47.30;17.90;;;;;;;9.84;100.00;100114.83;110444;1272;22313;-76
2023/10/23 01:19:36;;;;;;;48.50;17.60;;;;;;;9.86;100.00;100116.17;110426;1274;22152;-76
2023/10/23 01:22:07;;;;;;;44.10;16.80;;;;;;;9.87;100.00;100116.89;110442;1275;22366;-75
2023/10/23 01:24:42;;;;;;;33.00;12.90;;;;;;;9.88;100.00;100115.01;110472;1274;22918;-75
2023/10/23 01:27:12;;;;;;;30.90;12.30;;;;;;;9.90;100.00;100115.39;110421;1274;22350;-76
2023/10/23 01:29:43;;;;;;;29.20;10.90;;;;;;;9.92;100.00;100111.77;110420;1268;22227;-75
2023/10/23 01:32:14;;;;;;;35.30;12.80;;;;;;;9.93;100.00;100110.27;110442;1269;22308;-76
2023/10/23 01:34:44;;;;;;;31.10;11.40;;;;;;;9.95;100.00;100106.83;110273;1268;226000;-76
2023/10/23 01:37:15;;;;;;;43.40;15.40;;;;;;;9.97;100.00;100112.24;110390;1269;22230;-76
2023/10/23 01:39:46;;;;;;;37.40;14.80;;;;;;;9.98;100.00;100113.52;110439;1269;23316;-76
2023/10/23 01:42:17;;;;;;;33.50;13.70;;;;;;;9.99;100.00;100113.95;109036;1269;23161;-75
2023/10/23 01:44:48;;;;;;;26.70;10.30;;;;;;;10.01;100.00;100115.11;107256;1274;22520;-76
2023/10/23 01:47:18;;;;;;;24.40;9.30;;;;;;;10.03;100.00;100114.23;107427;1266;25340;-75
2023/10/23 01:49:50;;;;;;;21.50;8.40;;;;;;;10.04;100.00;100114.09;107400;1272;25071;-76
2023/10/23 01:52:21;;;;;;;24.00;8.00;;;;;;;10.05;100.00;100116.85;107430;1266;22560;-76
2023/10/23 01:54:54;;;;;;;22.60;7.90;;;;;;;10.05;100.00;100113.96;107362;1269;22542;-76
2023/10/23 01:57:25;;;;;;;20.20;7.50;;;;;;;10.05;100.00;100114.22;109822;1266;25294;-75
2023/10/23 02:00:03;;;;;;;24.90;7.80;;;;;;;10.05;100.00;100109.34;107352;1269;24244;-76
2023/10/23 02:02:34;;;;;;;23.10;7.00;;;;;;;10.04;100.00;100112.48;107313;1269;22649;-75
2023/10/23 02:05:05;;;;;;;23.70;6.90;;;;;;;10.04;100.00;100114.56;107298;1266;22520;-74
2023/10/23 02:07:36;;;;;;;22.60;7.30;;;;;;;10.03;100.00;100114.29;107307;1266;22518;-75
2023/10/23 02:10:09;;;;;;;19.30;6.40;;;;;;;10.03;100.00;100114.64;107254;1262;25354;-75
2023/10/23 02:12:40;;;;;;;18.60;6.20;;;;;;;10.02;100.00;100115.14;110394;1274;22159;-75
2023/10/23 02:15:12;;;;;;;19.50;6.20;;;;;;;10.03;100.00;100117.18;110435;1271;22351;-75
2023/10/23 02:17:43;;;;;;;21.00;5.60;;;;;;;10.04;100.00;100121.95;110414;1268;22146;-75
2023/10/23 02:20:14;;;;;;;19.70;5.70;;;;;;;10.05;100.00;100124.36;110393;1269;22214;-75
2023/10/23 02:22:45;;;;;;;17.80;5.80;;;;;;;10.06;100.00;100119.16;110419;1269;22926;-75
2023/10/23 02:25:17;;;;;;;14.40;5.50;;;;;;;10.07;100.00;100119.92;110429;1272;22364;-75
2023/10/23 02:27:47;;;;;;;18.80;5.70;;;;;;;10.06;100.00;100119.86;110411;1275;22497;-75
2023/10/23 02:30:19;;;;;;;18.90;5.50;;;;;;;10.06;100.00;100124.34;110411;1265;22168;-75
2023/10/23 02:32:49;;;;;;;17.50;5.40;;;;;;;10.06;100.00;100122.66;110478;1274;22161;-75
2023/10/23 02:35:20;;;;;;;19.30;4.90;;;;;;;10.07;100.00;100121.81;110404;1269;22856;-75
2023/10/23 02:37:51;;;;;;;15.20;4.80;;;;;;;10.09;100.00;100125.77;110442;1274;22317;-75
2023/10/23 02:40:22;;;;;;;19.20;5.80;;;;;;;10.10;100.00;100128.44;110373;1268;22392;-75
2023/10/23 02:42:53;;;;;;;16.80;5.30;;;;;;;10.11;100.00;100132.15;110418;1275;22202;-75
2023/10/23 02:45:23;;;;;;;21.70;5.70;;;;;;;10.12;100.00;100131.25;110423;1275;22917;-75
2023/10/23 02:47:54;;;;;;;22.30;6.50;;;;;;;10.13;100.00;100137.58;110408;1266;22117;-75
2023/10/23 02:50:25;;;;;;;17.10;5.00;;;;;;;10.14;100.00;100142.20;110440;1268;22344;-75
2023/10/23 02:52:56;;;;;;;15.10;4.90;;;;;;;10.16;100.00;100147.77;110438;1275;23031;-75
2023/10/23 02:55:29;;;;;;;16.40;4.30;;;;;;;10.18;100.00;100150.20;110416;1266;22925;-75
2023/10/23 02:58:00;;;;;;;21.20;6.00;;;;;;;10.19;100.00;100151.74;110465;1275;22276;-75
2023/10/23 03:00:31;;;;;;;17.50;5.20;;;;;;;10.20;100.00;100155.66;110428;1269;22394;-75
2023/10/23 03:03:02;;;;;;;22.20;5.70;;;;;;;10.21;100.00;100157.15;110431;1267;22226;-75
2023/10/23 03:05:33;;;;;;;15.20;4.10;;;;;;;10.20;100.00;100163.94;110370;1271;22184;-75
2023/10/23 03:08:05;;;;;;;17.10;5.20;;;;;;;10.22;100.00;100163.01;110401;1268;22321;-75
2023/10/23 03:10:36;;;;;;;16.10;5.10;;;;;;;10.22;100.00;100165.20;108324;1268;22542;-75
2023/10/23 03:13:07;;;;;;;16.50;4.90;;;;;;;10.22;100.00;100168.18;107501;1269;24176;-75
2023/10/23 03:15:40;;;;;;;18.60;5.10;;;;;;;10.21;100.00;100170.60;107627;1271;22510;-75
2023/10/23 03:18:11;;;;;;;17.00;5.30;;;;;;;10.22;100.00;100174.67;107734;1272;22479;-75
2023/10/23 03:20:42;;;;;;;18.10;6.40;;;;;;;10.22;100.00;100173.71;107326;1266;24407;-74
2023/10/23 03:23:12;;;;;;;20.60;4.90;;;;;;;10.22;100.00;100175.73;107330;1266;24240;-74
2023/10/23 03:25:44;;;;;;;19.80;5.40;;;;;;;10.22;100.00;100180.16;107434;1266;24225;-75
2023/10/23 03:28:15;;;;;;;18.20;5.40;;;;;;;10.21;100.00;100185.02;107437;1266;23341;-75
2023/10/23 03:30:45;;;;;;;20.20;4.70;;;;;;;10.21;100.00;100186.98;107364;1266;26174;-74
2023/10/23 03:33:16;;;;;;;17.30;5.10;;;;;;;10.19;100.00;100185.77;107341;1269;22520;-75
2023/10/23 03:35:47;;;;;;;17.00;4.50;;;;;;;10.19;100.00;100190.23;107352;1266;22507;-75
2023/10/23 03:38:18;;;;;;;18.40;5.30;;;;;;;10.19;100.00;100193.43;107230;1268;22506;-76
2023/10/23 03:40:59;;;;;;;21.30;5.20;;;;;;;10.18;100.00;100190.52;107351;1266;23337;-75
2023/10/23 03:43:29;;;;;;;20.20;4.90;;;;;;;10.18;100.00;100190.69;110417;1272;22291;-75
2023/10/23 03:46:04;;;;;;;22.20;5.60;;;;;;;10.19;100.00;100189.27;110432;1275;22261;-75
2023/10/23 03:48:37;;;;;;;22.00;5.70;;;;;;;10.19;100.00;100191.82;110435;1275;24238;-76
2023/10/23 03:51:08;;;;;;;18.80;5.00;;;;;;;10.20;100.00;100191.79;110397;1269;22199;-76
2023/10/23 03:53:38;;;;;;;22.80;4.90;;;;;;;10.21;100.00;100184.30;110420;1269;22352;-75
2023/10/23 03:56:09;;;;;;;19.20;4.10;;;;;;;10.22;100.00;100182.83;110387;1269;22246;-75
2023/10/23 03:58:40;;;;;;;16.40;4.40;;;;;;;10.23;100.00;100179.98;110404;1275;23411;-76
2023/10/23 04:01:11;;;;;;;17.60;3.70;;;;;;;10.25;100.00;100182.75;110404;1270;22316;-76
2023/10/23 04:03:41;;;;;;;23.00;3.60;;;;;;;10.25;100.00;100189.10;110443;1275;22184;-77
2023/10/23 04:06:12;;;;;;;23.60;3.80;;;;;;;10.26;100.00;100191.75;110425;1275;22389;-77
2023/10/23 04:08:43;;;;;;;18.80;4.00;;;;;;;10.28;100.00;100190.27;110455;1266;22316;-78
2023/10/23 04:11:16;;;;;;;20.50;3.80;;;;;;;10.28;100.00;100187.16;110388;1266;22167;-78
2023/10/23 04:13:47;;;;;;;18.10;3.80;;;;;;;10.30;100.00;100188.32;110423;1268;22290;-78
2023/10/23 04:16:18;;;;;;;15.50;4.40;;;;;;;10.30;100.00;100183.17;110375;1272;23233;-78
2023/10/23 04:18:49;;;;;;;23.50;3.30;;;;;;;10.32;100.00;100182.63;110376;1269;23207;-78
2023/10/23 04:21:20;;;;;;;14.70;4.20;;;;;;;10.32;100.00;100183.40;110331;1266;22409;-77
2023/10/23 04:23:51;;;;;;;17.40;3.50;;;;;;;10.33;100.00;100193.50;110442;1268;22232;-77
2023/10/23 04:26:22;;;;;;;14.00;3.30;;;;;;;10.33;100.00;100193.38;110427;1269;22222;-76
2023/10/23 04:28:53;;;;;;;14.70;3.90;;;;;;;10.35;100.00;100188.02;110455;1274;23811;-78
2023/10/23 04:31:23;;;;;;;18.00;4.00;;;;;;;10.36;100.00;100188.70;110322;1268;23124;-77
2023/10/23 04:33:54;;;;;;;20.90;3.50;;;;;;;10.37;100.00;100187.70;110394;1275;23511;-76
2023/10/23 04:36:25;;;;;;;17.50;3.70;;;;;;;10.37;100.00;100192.25;110442;1275;22276;-77
2023/10/23 04:38:57;;;;;;;19.30;3.90;;;;;;;10.36;100.00;100190.84;110391;1275;22191;-76
2023/10/23 04:41:29;;;;;;;18.00;3.10;;;;;;;10.36;100.00;100198.34;110365;1275;22154;-76
2023/10/23 04:43:59;;;;;;;16.10;3.40;;;;;;;10.35;100.00;100195.27;110377;1275;22196;-76
2023/10/23 04:46:30;;;;;;;16.40;3.30;;;;;;;10.34;100.00;100193.09;110346;1270;22193;-76
2023/10/23 04:49:01;;;;;;;14.70;2.90;;;;;;;10.34;100.00;100194.70;110411;1275;22247;-77
2023/10/23 04:51:33;;;;;;;14.70;3.20;;;;;;;10.34;100.00;100194.39;110390;1275;22799;-77
2023/10/23 04:54:03;;;;;;;19.70;3.40;;;;;;;10.34;100.00;100191.39;110410;1275;22200;-77
2023/10/23 04:56:34;;;;;;;21.40;3.50;;;;;;;10.33;100.00;100194.02;110411;1275;23248;-76
2023/10/23 04:59:05;;;;;;;19.60;2.90;;;;;;;10.34;100.00;100198.20;110422;1275;23323;-76
2023/10/23 05:01:36;;;;;;;14.10;3.10;;;;;;;10.36;100.00;100199.08;110419;1275;22173;-76
2023/10/23 05:04:07;;;;;;;16.90;4.00;;;;;;;10.37;100.00;100203.09;110363;1272;23173;-76
2023/10/23 05:06:38;;;;;;;16.10;3.30;;;;;;;10.36;100.00;100204.95;110437;1275;22215;-76
2023/10/23 05:09:10;;;;;;;12.90;3.00;;;;;;;10.35;100.00;100211.01;110404;1275;22419;-77
2023/10/23 05:11:41;;;;;;;14.90;3.00;;;;;;;10.34;100.00;100212.00;110417;1274;22256;-76
2023/10/23 05:14:12;;;;;;;16.80;3.30;;;;;;;10.34;100.00;100217.36;110401;1275;22351;-77
2023/10/23 05:16:43;;;;;;;15.30;3.10;;;;;;;10.34;100.00;100220.06;110421;1275;22149;-76
2023/10/23 05:19:13;;;;;;;15.70;2.80;;;;;;;10.34;100.00;100225.49;110470;1275;22143;-76
2023/10/23 05:21:44;;;;;;;13.60;2.80;;;;;;;10.35;100.00;100231.34;110429;1268;22568;-76
2023/10/23 05:24:15;;;;;;;12.00;3.00;;;;;;;10.36;100.00;100232.94;110449;1275;22380;-76
2023/10/23 05:26:46;;;;;;;9.60;2.30;;;;;;;10.38;100.00;100238.30;110426;1275;22433;-76
2023/10/23 05:29:17;;;;;;;12.50;2.70;;;;;;;10.39;100.00;100235.02;110424;1275;22225;-76
2023/10/23 05:31:48;;;;;;;19.60;3.10;;;;;;;10.40;100.00;100241.19;110437;1275;22164;-76
2023/10/23 05:34:18;;;;;;;13.10;2.20;;;;;;;10.40;100.00;100245.15;110431;1275;22497;-76
2023/10/23 05:36:49;;;;;;;11.70;2.20;;;;;;;10.42;100.00;100247.16;110432;1275;22158;-76
2023/10/23 05:39:20;;;;;;;16.00;2.70;;;;;;;10.43;100.00;100248.20;110407;1275;23033;-76
2023/10/23 05:41:50;;;;;;;16.90;2.40;;;;;;;10.43;100.00;100250.58;110384;1275;22213;-76
2023/10/23 05:44:21;;;;;;;14.00;2.60;;;;;;;10.45;100.00;100255.60;110441;1275;22396;-76
2023/10/23 05:46:53;;;;;;;12.70;2.40;;;;;;;10.46;100.00;100257.48;110424;1275;22190;-76
2023/10/23 05:49:23;;;;;;;15.60;2.80;;;;;;;10.46;100.00;100258.01;110388;1275;22379;-76
2023/10/23 05:51:54;;;;;;;15.50;3.40;;;;;;;10.46;100.00;100260.23;110427;1275;23064;-76
2023/10/23 05:54:25;;;;;;;15.60;2.60;;;;;;;10.47;100.00;100265.52;110423;1275;23216;-76
2023/10/23 05:56:56;;;;;;;16.50;2.80;;;;;;;10.48;100.00;100267.73;110431;1275;22145;-76
2023/10/23 05:59:26;;;;;;;11.00;2.60;;;;;;;10.49;100.00;100271.56;110418;1275;22838;-76
2023/10/23 06:01:58;;;;;;;15.60;3.40;;;;;;;10.50;100.00;100272.50;110403;1275;22165;-76
2023/10/23 06:04:29;;;;;;;12.30;2.40;;;;;;;10.51;100.00;100271.38;110449;1275;22622;-75
2023/10/23 06:07:00;;;;;;;12.50;3.50;;;;;;;10.52;100.00;100272.53;110399;1272;23207;-76
2023/10/23 06:09:31;;;;;;;15.40;3.80;;;;;;;10.53;100.00;100272.86;110450;1275;22160;-76
2023/10/23 06:12:02;;;;;;;18.40;3.40;;;;;;;10.54;100.00;100272.73;110393;1275;22212;-75
2023/10/23 06:14:33;;;;;;;17.00;3.70;;;;;;;10.55;100.00;100274.06;110376;1275;22215;-76
2023/10/23 06:17:04;;;;;;;14.90;3.50;;;;;;;10.56;100.00;100280.69;110414;1275;23209;-76
2023/10/23 06:19:36;;;;;;;14.10;3.60;;;;;;;10.57;100.00;100282.63;110448;1275;22214;-75
2023/10/23 06:22:07;;;;;;;11.70;3.20;;;;;;;10.58;100.00;100284.79;110434;1272;22367;-76
2023/10/23 06:24:38;;;;;;;13.10;3.40;;;;;;;10.60;100.00;100279.53;110419;1275;22178;-76
2023/10/23 06:27:10;;;;;;;18.50;4.70;;;;;;;10.62;100.00;100282.49;110448;1275;23036;-76
2023/10/23 06:29:40;;;;;;;17.10;4.50;;;;;;;10.64;100.00;100286.91;110401;1272;22139;-76
2023/10/23 06:32:13;;;;;;;31.00;9.10;;;;;;;10.65;100.00;100284.40;110404;1275;22311;-76
2023/10/23 06:34:44;;;;;;;26.40;8.70;;;;;;;10.66;100.00;100285.27;110449;1275;22331;-76
2023/10/23 06:37:14;;;;;;;19.70;6.90;;;;;;;10.68;100.00;100288.06;110402;1275;22317;-76
2023/10/23 06:39:45;;;;;;;19.30;5.60;;;;;;;10.70;100.00;100286.58;110407;1275;22675;-76
2023/10/23 06:42:16;;;;;;;17.00;4.70;;;;;;;10.72;100.00;100285.15;110403;1275;22320;-75
2023/10/23 06:44:49;;;;;;;20.00;5.80;;;;;;;10.75;100.00;100286.36;110444;1275;22153;-75
2023/10/23 06:47:21;;;;;;;25.10;6.80;;;;;;;10.76;100.00;100290.80;110446;1275;22432;-76
2023/10/23 06:49:51;;;;;;;21.00;7.20;;;;;;;10.76;100.00;100301.83;110410;1275;22908;-76
2023/10/23 06:52:22;;;;;;;19.40;7.30;;;;;;;10.77;100.00;100297.98;110404;1275;23443;-76
2023/10/23 06:54:53;;;;;;;19.10;6.40;;;;;;;10.81;100.00;100297.55;110412;1269;22361;-76
2023/10/23 06:57:24;;;;;;;23.40;7.00;;;;;;;10.86;100.00;100295.97;110407;1275;22208;-76
2023/10/23 06:59:55;;;;;;;21.20;6.40;;;;;;;10.90;100.00;100294.16;110460;1275;22153;-75
2023/10/23 07:02:26;;;;;;;24.90;6.30;;;;;;;10.93;100.00;100298.75;110406;1275;22350;-75
2023/10/23 07:04:57;;;;;;;18.80;6.20;;;;;;;10.97;100.00;100304.60;110272;1272;22814;-75
2023/10/23 07:07:28;;;;;;;20.10;6.40;;;;;;;11.01;100.00;100305.52;110379;1275;22221;-75
2023/10/23 07:09:59;;;;;;;25.20;5.90;;;;;;;11.05;100.00;100309.38;110414;1275;22313;-75
2023/10/23 07:12:30;;;;;;;22.20;6.70;;;;;;;11.08;100.00;100308.02;110403;1275;22327;-75
2023/10/23 07:15:02;;;;;;;21.00;5.40;;;;;;;11.10;100.00;100312.61;110396;1268;22252;-75
2023/10/23 07:17:34;;;;;;;21.20;5.80;;;;;;;11.11;100.00;100318.02;110456;1275;22470;-75
2023/10/23 07:20:06;;;;;;;17.90;5.30;;;;;;;11.11;100.00;100319.13;110449;1272;22182;-75
2023/10/23 07:22:37;;;;;;;18.60;5.10;;;;;;;11.11;100.00;100321.31;110408;1275;22332;-75
2023/10/23 07:25:10;;;;;;;20.30;4.70;;;;;;;11.12;100.00;100320.83;110407;1275;22358;-75
2023/10/23 07:27:41;;;;;;;25.10;6.00;;;;;;;11.13;100.00;100321.25;110420;1275;22232;-75
2023/10/23 07:30:13;;;;;;;20.10;5.20;;;;;;;11.14;100.00;100318.52;110389;1275;22328;-75
2023/10/23 07:32:48;;;;;;;16.60;4.20;;;;;;;11.18;100.00;100320.98;110414;1275;22164;-75
2023/10/23 07:35:20;;;;;;;21.20;5.20;;;;;;;11.21;100.00;100318.96;110403;1275;22328;-75
2023/10/23 07:37:51;;;;;;;18.60;5.30;;;;;;;11.25;100.00;100324.01;110435;1275;22162;-75
2023/10/23 07:40:21;;;;;;;16.70;4.20;;;;;;;11.28;100.00;100317.86;110432;1275;22195;-75
2023/10/23 07:42:52;;;;;;;15.40;4.10;;;;;;;11.32;100.00;100316.10;110465;1272;22184;-75
2023/10/23 07:45:23;;;;;;;21.00;5.90;;;;;;;11.35;100.00;100315.94;110428;1272;22732;-75
2023/10/23 07:47:54;;;;;;;17.80;4.80;;;;;;;11.38;100.00;100317.22;110457;1275;22142;-75
2023/10/23 07:50:26;;;;;;;19.20;5.20;;;;;;;11.43;100.00;100314.80;110417;1275;22194;-75
2023/10/23 07:52:56;;;;;;;18.00;5.10;;;;;;;11.47;100.00;100317.77;110446;1275;22222;-75
2023/10/23 07:55:27;;;;;;;26.80;11.10;;;;;;;11.51;100.00;100319.25;110406;1275;22662;-75
2023/10/23 07:57:58;;;;;;;34.00;14.40;;;;;;;11.54;100.00;100316.73;110387;1272;22159;-75
2023/10/23 08:00:29;;;;;;;30.80;12.70;;;;;;;11.59;100.00;100323.34;110428;1275;22217;-75
2023/10/23 08:03:00;;;;;;;26.50;12.10;;;;;;;11.62;100.00;100323.60;110418;1275;22348;-75
2023/10/23 08:05:31;;;;;;;31.60;10.40;;;;;;;11.66;100.00;100320.23;110375;1275;22474;-75
2023/10/23 08:08:03;;;;;;;19.70;6.20;;;;;;;11.71;100.00;100325.25;110437;1272;22167;-75
2023/10/23 08:10:34;;;;;;;17.40;5.80;;;;;;;11.75;100.00;100330.30;110434;1275;22178;-75
2023/10/23 08:13:05;;;;;;;20.40;4.60;;;;;;;11.80;100.00;100328.85;110434;1275;22231;-75
2023/10/23 08:15:38;;;;;;;15.90;4.50;;;;;;;11.83;100.00;100327.52;110398;1275;22980;-75
2023/10/23 08:18:09;;;;;;;15.00;3.50;;;;;;;11.87;100.00;100324.49;110443;1272;22215;-77
2023/10/23 08:20:39;;;;;;;14.40;3.70;;;;;;;11.93;100.00;100320.30;110411;1275;22191;-77
2023/10/23 08:23:10;;;;;;;19.00;5.30;;;;;;;12.00;100.00;100321.36;110412;1275;22152;-76
2023/10/23 08:25:41;;;;;;;20.40;4.80;;;;;;;12.06;100.00;100318.86;110414;1275;22179;-77
2023/10/23 08:28:12;;;;;;;18.20;4.50;;;;;;;12.12;100.00;100319.14;110420;1272;22135;-76
2023/10/23 08:30:43;;;;;;;15.80;4.50;;;;;;;12.17;100.00;100321.41;110394;1275;22147;-77
2023/10/23 08:33:13;;;;;;;25.50;5.60;;;;;;;12.20;100.00;100324.80;110359;1275;23563;-77
2023/10/23 08:35:44;;;;;;;20.50;5.50;;;;;;;12.24;100.00;100323.95;110414;1275;22710;-77
2023/10/23 08:38:15;;;;;;;18.40;4.40;;;;;;;12.29;100.00;100321.20;110401;1275;22393;-77
2023/10/23 08:40:46;;;;;;;17.70;4.20;;;;;;;12.33;100.00;100315.77;110393;1275;22175;-77
2023/10/23 08:43:16;;;;;;;16.00;4.10;;;;;;;12.38;100.00;100313.95;110436;1275;22596;-77
2023/10/23 08:45:50;;;;;;;17.00;4.50;;;;;;;12.44;100.00;100317.23;110404;1275;22214;-77
2023/10/23 08:48:21;;;;;;;16.30;4.90;;;;;;;12.48;100.00;100320.34;110441;1275;23246;-77
2023/10/23 08:50:56;;;;;;;15.40;5.20;;;;;;;12.53;100.00;100321.68;110430;1272;22090;-77
2023/10/23 08:53:34;;;;;;;22.40;4.30;;;;;;;12.56;100.00;100321.36;110409;1275;22224;-77
2023/10/23 08:56:07;;;;;;;18.60;3.80;;;;;;;12.58;100.00;100323.61;110412;1275;23074;-77
2023/10/23 08:58:39;;;;;;;19.30;5.00;;;;;;;12.62;100.00;100322.09;110407;1275;22303;-77
2023/10/23 09:01:10;;;;;;;14.50;3.40;;;;;;;12.66;100.00;100321.11;110410;1272;22338;-77
2023/10/23 09:03:41;;;;;;;16.80;2.90;;;;;;;12.71;100.00;100325.09;110386;1275;22520;-77
2023/10/23 09:06:12;;;;;;;15.00;2.70;;;;;;;12.74;100.00;100325.79;110443;1275;23035;-77
2023/10/23 09:08:45;;;;;;;17.90;3.50;;;;;;;12.78;100.00;100322.83;110430;1268;22973;-77
2023/10/23 09:11:16;;;;;;;16.00;3.40;;;;;;;12.82;100.00;100321.57;110391;1275;22378;-77
2023/10/23 09:13:47;;;;;;;12.30;2.60;;;;;;;12.87;100.00;100314.80;110446;1275;22151;-76
2023/10/23 09:16:17;;;;;;;12.70;2.10;;;;;;;12.92;100.00;100313.31;110429;1275;22279;-76
2023/10/23 09:18:50;;;;;;;18.70;2.80;;;;;;;12.95;100.00;100315.18;110452;1272;22231;-76
2023/10/23 09:21:21;;;;;;;14.90;2.60;;;;;;;12.97;100.00;100312.98;110395;1275;22198;-76
2023/10/23 09:23:58;;;;;;;14.00;2.10;;;;;;;13.00;100.00;100313.09;110434;1275;22928;-76
2023/10/23 09:26:29;;;;;;;14.00;2.90;;;;;;;13.04;100.00;100315.85;110422;1275;22203;-76
2023/10/23 09:28:59;;;;;;;15.10;2.40;;;;;;;13.09;100.00;100312.55;110409;1275;22268;-76
2023/10/23 09:31:30;;;;;;;14.70;2.10;;;;;;;13.13;100.00;100316.31;110364;1275;22191;-77
2023/10/23 09:34:03;;;;;;;10.00;2.30;;;;;;;13.15;100.00;100321.98;110423;1275;22961;-77
2023/10/23 09:36:35;;;;;;;11.20;1.80;;;;;;;13.19;100.00;100320.20;110289;1275;23012;-76
2023/10/23 09:39:06;;;;;;;14.30;2.60;;;;;;;13.23;100.00;100319.00;110437;1275;22223;-76
2023/10/23 09:41:37;;;;;;;12.00;2.40;;;;;;;13.27;100.00;100322.25;110403;1275;22201;-76
2023/10/23 09:44:09;;;;;;;13.30;3.10;;;;;;;13.32;100.00;100318.17;110435;1275;22983;-76
2023/10/23 09:46:42;;;;;;;16.60;2.60;;;;;;;13.39;100.00;100320.33;110387;1275;23192;-76
2023/10/23 09:49:13;;;;;;;14.50;2.40;;;;;;;13.43;100.00;100316.13;110368;1275;23171;-76
2023/10/23 09:51:44;;;;;;;14.40;2.90;;;;;;;13.46;100.00;100313.61;110389;1272;23015;-76
2023/10/23 09:54:17;;;;;;;12.80;2.40;;;;;;;13.47;100.00;100309.64;110479;1275;22314;-76
2023/10/23 09:56:52;;;;;;;12.00;2.20;;;;;;;13.48;100.00;100310.57;110428;1275;22185;-77
2023/10/23 09:59:27;;;;;;;12.80;2.20;;;;;;;13.52;100.00;100311.26;110454;1266;22191;-76
2023/10/23 10:02:02;;;;;;;9.80;1.90;;;;;;;13.53;100.00;100309.73;110446;1266;22186;-77
2023/10/23 10:04:42;;;;;;;14.50;2.80;;;;;;;13.56;100.00;100304.15;110450;1272;22263;-77
2023/10/23 10:07:21;;;;;;;11.60;2.00;;;;;;;13.60;100.00;100306.48;110419;1275;23283;-77
2023/10/23 10:09:52;;;;;;;12.20;1.80;;;;;;;13.62;100.00;100308.84;110393;1275;22369;-77
2023/10/23 10:12:25;;;;;;;17.20;1.90;;;;;;;13.62;100.00;100302.16;110405;1275;23337;-77
2023/10/23 10:14:57;;;;;;;11.30;1.60;;;;;;;13.67;100.00;100303.05;110414;1275;22859;-77
2023/10/23 10:17:28;;;;;;;13.80;1.70;;;;;;;13.71;100.00;100293.86;110391;1275;22878;-77
2023/10/23 10:20:02;;;;;;;8.60;1.60;;;;;;;13.75;100.00;100293.63;110428;1275;22227;-76
2023/10/23 10:22:36;;;;;;;18.60;3.10;;;;;;;13.79;100.00;100295.04;110441;1275;24106;-76
2023/10/23 10:25:09;;;;;;;12.50;1.80;;;;;;;13.85;100.00;100291.65;110401;1275;22177;-77
2023/10/23 10:27:40;;;;;;;10.90;1.40;;;;;;;13.88;100.00;100287.09;110397;1275;23049;-77
2023/10/23 10:30:41;;;;;;;15.10;2.00;;;;;;;13.90;100.00;100283.58;110422;1275;22169;-77
2023/10/23 10:33:21;;;;;;;11.00;1.30;;;;;;;13.96;100.00;100288.41;110445;1275;23272;-76
2023/10/23 10:35:58;;;;;;;15.00;1.60;;;;;;;14.07;100.00;100284.90;110402;1275;22143;-77
2023/10/23 10:38:30;;;;;;;11.20;1.60;;;;;;;14.16;100.00;100286.42;110421;1270;22455;-77
2023/10/23 10:41:03;;;;;;;11.60;1.60;;;;;;;14.22;100.00;100283.60;110400;1275;23118;-77
2023/10/23 10:43:37;;;;;;;8.40;1.50;;;;;;;14.31;100.00;100279.64;110485;1269;23556;-77
2023/10/23 10:46:21;;;;;;;12.30;1.10;;;;;;;14.41;100.00;100280.20;110495;1275;22225;-77
2023/10/23 10:48:54;;;;;;;11.50;1.70;;;;;;;14.49;100.00;100277.61;110413;1275;22158;-76
2023/10/23 10:51:27;;;;;;;9.20;1.20;;;;;;;14.53;100.00;100272.37;110411;1275;22160;-77
2023/10/23 10:54:03;;;;;;;12.60;1.40;;;;;;;14.59;100.00;100270.35;110440;1260;22174;-77
2023/10/23 10:56:34;;;;;;;9.50;1.30;;;;;;;14.67;100.00;100267.98;110421;1275;22455;-77
2023/10/23 10:59:06;;;;;;;11.30;1.10;;;;;;;14.77;100.00;100262.80;110397;1275;22167;-77
2023/10/23 11:01:37;;;;;;;8.80;1.20;;;;;;;14.85;100.00;100262.19;110383;1275;22508;-77
2023/10/23 11:04:08;;;;;;;9.80;1.20;;;;;;;14.89;100.00;100262.26;110403;1275;22145;-77
2023/10/23 11:06:39;;;;;;;9.80;1.00;;;;;;;14.93;100.00;100258.42;110411;1257;22150;-77
2023/10/23 11:09:11;;;;;;;9.70;0.80;;;;;;;14.95;98.98;100260.02;110415;1275;22148;-76
2023/10/23 11:11:43;;;;;;;9.20;1.20;;;;;;;14.96;98.33;100261.55;110401;1270;22160;-77
2023/10/23 11:14:13;;;;;;;7.20;1.10;;;;;;;15.02;99.72;100263.85;110397;1275;22146;-77
2023/10/23 11:16:44;;;;;;;8.70;0.90;;;;;;;15.04;99.02;100262.98;110398;1275;22174;-76
2023/10/23 11:19:15;;;;;;;11.70;0.90;;;;;;;15.04;97.61;100265.80;110402;1270;22433;-77
2023/10/23 11:21:45;;;;;;;14.60;1.10;;;;;;;15.07;98.71;100266.46;110445;1275;22097;-77